sensor_id;sensor_type;location;lat;lon;timestamp;temperature;humidity
71942;DHT22;59997;53.300;-6.260;2022-09-03T00:00:48;16.27;62.86
71942;DHT22;59997;53.300;-6.260;2022-09-03T00:03:36;16.41;62.35
71942;DHT22;59997;53.300;-6.260;2022-09-03T00:06:15;16.31;63.43
71942;DHT22;59997;53.300;-6.260;2022-09-03T00:09:06;16.11;65.19
71942;DHT22;59997;53.300;-6.260;2022-09-03T00:11:45;16.04;64.72
71942;DHT22;59997;53.300;-6.260;2022-09-03T00:14:19;16.04;64.77
71942;DHT22;59997;53.300;-6.260;2022-09-03T00:16:51;16.01;65.29
71942;DHT22;59997;53.300;-6.260;2022-09-03T00:19:21;15.89;65.79
71942;DHT22;59997;53.300;-6.260;2022-09-03T00:21:56;15.85;66.18
71942;DHT22;59997;53.300;-6.260;2022-09-03T00:24:27;15.75;66.82
71942;DHT22;59997;53.300;-6.260;2022-09-03T00:26:56;15.62;68.40
71942;DHT22;59997;53.300;-6.260;2022-09-03T00:29:30;15.62;68.25
71942;DHT22;59997;53.300;-6.260;2022-09-03T00:32:02;15.61;68.70
71942;DHT22;59997;53.300;-6.260;2022-09-03T00:34:33;15.38;70.94
71942;DHT22;59997;53.300;-6.260;2022-09-03T00:36:59;15.42;70.54
71942;DHT22;59997;53.300;-6.260;2022-09-03T00:39:26;15.20;70.34
71942;DHT22;59997;53.300;-6.260;2022-09-03T00:42:20;15.03;72.76
71942;DHT22;59997;53.300;-6.260;2022-09-03T00:56:44;14.95;71.91
71942;DHT22;59997;53.300;-6.260;2022-09-03T01:02:19;14.76;72.76
71942;DHT22;59997;53.300;-6.260;2022-09-03T01:05:16;14.64;73.55
71942;DHT22;59997;53.300;-6.260;2022-09-03T01:08:07;14.52;74.22
71942;DHT22;59997;53.300;-6.260;2022-09-03T01:11:20;14.51;74.73
71942;DHT22;59997;53.300;-6.260;2022-09-03T01:25:48;14.45;77.51
71942;DHT22;59997;53.300;-6.260;2022-09-03T01:28:26;14.41;77.34
71942;DHT22;59997;53.300;-6.260;2022-09-03T01:34:14;14.42;78.74
71942;DHT22;59997;53.300;-6.260;2022-09-03T01:45:06;14.30;79.53
71942;DHT22;59997;53.300;-6.260;2022-09-03T01:47:53;14.26;80.09
71942;DHT22;59997;53.300;-6.260;2022-09-03T01:58:36;14.20;81.78
71942;DHT22;59997;53.300;-6.260;2022-09-03T02:01:10;14.24;81.36
71942;DHT22;59997;53.300;-6.260;2022-09-03T02:03:41;14.20;82.23
71942;DHT22;59997;53.300;-6.260;2022-09-03T02:06:10;14.10;82.70
71942;DHT22;59997;53.300;-6.260;2022-09-03T02:08:37;14.10;83.27
71942;DHT22;59997;53.300;-6.260;2022-09-03T02:11:05;14.09;83.76
71942;DHT22;59997;53.300;-6.260;2022-09-03T02:13:42;14.05;83.53
71942;DHT22;59997;53.300;-6.260;2022-09-03T02:16:15;14.06;83.80
71942;DHT22;59997;53.300;-6.260;2022-09-03T02:18:50;14.08;84.15
71942;DHT22;59997;53.300;-6.260;2022-09-03T02:21:19;14.02;84.46
71942;DHT22;59997;53.300;-6.260;2022-09-03T02:23:46;14.01;84.65
71942;DHT22;59997;53.300;-6.260;2022-09-03T02:26:15;13.96;85.16
71942;DHT22;59997;53.300;-6.260;2022-09-03T02:28:42;13.93;85.54
71942;DHT22;59997;53.300;-6.260;2022-09-03T02:31:09;13.86;85.86
71942;DHT22;59997;53.300;-6.260;2022-09-03T02:33:37;13.86;86.17
71942;DHT22;59997;53.300;-6.260;2022-09-03T02:36:07;13.86;86.44
71942;DHT22;59997;53.300;-6.260;2022-09-03T02:38:32;13.85;86.52
71942;DHT22;59997;53.300;-6.260;2022-09-03T02:40:58;13.82;86.80
71942;DHT22;59997;53.300;-6.260;2022-09-03T02:43:31;13.79;87.82
71942;DHT22;59997;53.300;-6.260;2022-09-03T02:46:03;13.74;88.09
71942;DHT22;59997;53.300;-6.260;2022-09-03T02:48:29;13.72;88.46
71942;DHT22;59997;53.300;-6.260;2022-09-03T02:50:54;13.86;88.09
71942;DHT22;59997;53.300;-6.260;2022-09-03T02:53:20;13.95;88.15
71942;DHT22;59997;53.300;-6.260;2022-09-03T02:55:45;14.05;87.76
71942;DHT22;59997;53.300;-6.260;2022-09-03T02:58:13;14.08;87.68
71942;DHT22;59997;53.300;-6.260;2022-09-03T03:00:38;14.17;87.02
71942;DHT22;59997;53.300;-6.260;2022-09-03T03:03:04;14.21;87.05
71942;DHT22;59997;53.300;-6.260;2022-09-03T03:05:49;14.14;87.30
71942;DHT22;59997;53.300;-6.260;2022-09-03T03:08:16;14.10;87.89
71942;DHT22;59997;53.300;-6.260;2022-09-03T03:10:43;14.03;88.32
71942;DHT22;59997;53.300;-6.260;2022-09-03T03:13:10;13.96;88.93
71942;DHT22;59997;53.300;-6.260;2022-09-03T03:15:36;13.92;89.23
71942;DHT22;59997;53.300;-6.260;2022-09-03T03:18:01;13.89;89.38
71942;DHT22;59997;53.300;-6.260;2022-09-03T03:20:27;13.96;89.58
71942;DHT22;59997;53.300;-6.260;2022-09-03T03:22:53;13.99;89.39
71942;DHT22;59997;53.300;-6.260;2022-09-03T03:25:19;13.92;89.78
71942;DHT22;59997;53.300;-6.260;2022-09-03T03:27:44;13.89;90.46
71942;DHT22;59997;53.300;-6.260;2022-09-03T03:30:10;13.89;90.61
71942;DHT22;59997;53.300;-6.260;2022-09-03T03:32:37;14.03;90.30
71942;DHT22;59997;53.300;-6.260;2022-09-03T03:35:03;14.02;90.59
71942;DHT22;59997;53.300;-6.260;2022-09-03T03:37:30;14.09;89.97
71942;DHT22;59997;53.300;-6.260;2022-09-03T03:39:56;14.13;89.63
71942;DHT22;59997;53.300;-6.260;2022-09-03T03:42:21;14.03;90.10
71942;DHT22;59997;53.300;-6.260;2022-09-03T03:44:47;13.96;90.49
71942;DHT22;59997;53.300;-6.260;2022-09-03T03:47:12;13.87;90.96
71942;DHT22;59997;53.300;-6.260;2022-09-03T03:49:41;13.89;91.36
71942;DHT22;59997;53.300;-6.260;2022-09-03T03:52:07;13.93;90.84
71942;DHT22;59997;53.300;-6.260;2022-09-03T03:54:32;13.86;91.36
71942;DHT22;59997;53.300;-6.260;2022-09-03T03:56:58;13.78;91.42
71942;DHT22;59997;53.300;-6.260;2022-09-03T03:59:23;13.74;91.93
71942;DHT22;59997;53.300;-6.260;2022-09-03T04:01:49;13.86;91.66
71942;DHT22;59997;53.300;-6.260;2022-09-03T04:04:15;13.95;91.36
71942;DHT22;59997;53.300;-6.260;2022-09-03T04:06:41;14.02;88.36
71942;DHT22;59997;53.300;-6.260;2022-09-03T04:09:07;14.12;86.63
71942;DHT22;59997;53.300;-6.260;2022-09-03T04:11:32;14.21;84.92
71942;DHT22;59997;53.300;-6.260;2022-09-03T04:13:58;14.31;83.67
71942;DHT22;59997;53.300;-6.260;2022-09-03T04:16:25;14.33;82.43
71942;DHT22;59997;53.300;-6.260;2022-09-03T04:18:52;14.48;81.22
71942;DHT22;59997;53.300;-6.260;2022-09-03T04:21:21;14.62;80.50
71942;DHT22;59997;53.300;-6.260;2022-09-03T04:23:47;14.58;81.60
71942;DHT22;59997;53.300;-6.260;2022-09-03T04:26:16;14.49;81.86
71942;DHT22;59997;53.300;-6.260;2022-09-03T04:28:42;14.41;82.09
71942;DHT22;59997;53.300;-6.260;2022-09-03T04:31:11;14.34;82.79
71942;DHT22;59997;53.300;-6.260;2022-09-03T04:33:37;14.27;83.87
71942;DHT22;59997;53.300;-6.260;2022-09-03T04:36:03;14.28;83.25
71942;DHT22;59997;53.300;-6.260;2022-09-03T04:38:30;14.16;83.99
71942;DHT22;59997;53.300;-6.260;2022-09-03T04:40:56;14.08;84.42
71942;DHT22;59997;53.300;-6.260;2022-09-03T04:43:23;14.02;85.05
71942;DHT22;59997;53.300;-6.260;2022-09-03T04:45:48;13.87;85.61
71942;DHT22;59997;53.300;-6.260;2022-09-03T04:48:14;13.92;85.04
71942;DHT22;59997;53.300;-6.260;2022-09-03T04:50:39;13.87;84.78
71942;DHT22;59997;53.300;-6.260;2022-09-03T04:53:06;13.90;84.60
71942;DHT22;59997;53.300;-6.260;2022-09-03T04:55:33;13.85;85.15
71942;DHT22;59997;53.300;-6.260;2022-09-03T04:57:59;13.85;84.48
71942;DHT22;59997;53.300;-6.260;2022-09-03T05:00:25;13.81;85.33
71942;DHT22;59997;53.300;-6.260;2022-09-03T05:02:50;13.79;85.36
71942;DHT22;59997;53.300;-6.260;2022-09-03T05:05:17;13.69;86.05
71942;DHT22;59997;53.300;-6.260;2022-09-03T05:07:43;13.64;87.34
71942;DHT22;59997;53.300;-6.260;2022-09-03T05:10:10;13.65;86.72
71942;DHT22;59997;53.300;-6.260;2022-09-03T05:13:00;13.65;86.92
71942;DHT22;59997;53.300;-6.260;2022-09-03T05:15:27;13.85;85.77
71942;DHT22;59997;53.300;-6.260;2022-09-03T05:18:00;13.79;86.42
71942;DHT22;59997;53.300;-6.260;2022-09-03T05:20:26;13.68;87.47
71942;DHT22;59997;53.300;-6.260;2022-09-03T05:22:55;13.51;88.18
71942;DHT22;59997;53.300;-6.260;2022-09-03T05:25:22;13.43;89.51
71942;DHT22;59997;53.300;-6.260;2022-09-03T05:27:48;13.34;90.04
71942;DHT22;59997;53.300;-6.260;2022-09-03T05:30:14;13.28;90.64
71942;DHT22;59997;53.300;-6.260;2022-09-03T05:32:40;13.17;91.33
71942;DHT22;59997;53.300;-6.260;2022-09-03T05:35:07;13.12;91.59
71942;DHT22;59997;53.300;-6.260;2022-09-03T05:37:33;13.12;91.52
71942;DHT22;59997;53.300;-6.260;2022-09-03T05:39:58;13.10;91.83
71942;DHT22;59997;53.300;-6.260;2022-09-03T05:42:24;13.08;92.06
71942;DHT22;59997;53.300;-6.260;2022-09-03T05:44:51;13.05;92.58
71942;DHT22;59997;53.300;-6.260;2022-09-03T05:47:16;13.03;92.64
71942;DHT22;59997;53.300;-6.260;2022-09-03T05:49:42;13.37;90.21
71942;DHT22;59997;53.300;-6.260;2022-09-03T05:52:07;13.32;90.54
71942;DHT22;59997;53.300;-6.260;2022-09-03T05:54:35;13.32;91.01
71942;DHT22;59997;53.300;-6.260;2022-09-03T05:57:00;13.32;91.49
71942;DHT22;59997;53.300;-6.260;2022-09-03T05:59:26;13.20;91.91
71942;DHT22;59997;53.300;-6.260;2022-09-03T06:01:52;13.09;92.64
71942;DHT22;59997;53.300;-6.260;2022-09-03T06:04:18;13.02;92.94
71942;DHT22;59997;53.300;-6.260;2022-09-03T06:06:46;12.95;93.61
71942;DHT22;59997;53.300;-6.260;2022-09-03T06:09:14;13.09;93.83
71942;DHT22;59997;53.300;-6.260;2022-09-03T06:11:41;13.13;93.87
71942;DHT22;59997;53.300;-6.260;2022-09-03T06:14:08;13.19;93.36
71942;DHT22;59997;53.300;-6.260;2022-09-03T06:16:37;13.16;93.39
71942;DHT22;59997;53.300;-6.260;2022-09-03T06:19:04;13.06;93.81
71942;DHT22;59997;53.300;-6.260;2022-09-03T06:21:34;12.99;94.04
71942;DHT22;59997;53.300;-6.260;2022-09-03T06:24:01;12.93;94.31
71942;DHT22;59997;53.300;-6.260;2022-09-03T06:26:27;12.91;94.70
71942;DHT22;59997;53.300;-6.260;2022-09-03T06:28:53;12.91;94.75
71942;DHT22;59997;53.300;-6.260;2022-09-03T06:31:19;13.00;94.65
71942;DHT22;59997;53.300;-6.260;2022-09-03T06:33:46;13.00;94.45
71942;DHT22;59997;53.300;-6.260;2022-09-03T06:36:14;12.91;94.80
71942;DHT22;59997;53.300;-6.260;2022-09-03T06:38:41;12.87;94.99
71942;DHT22;59997;53.300;-6.260;2022-09-03T06:41:27;12.87;95.49
71942;DHT22;59997;53.300;-6.260;2022-09-03T06:43:58;12.96;95.58
71942;DHT22;59997;53.300;-6.260;2022-09-03T06:46:27;13.02;94.49
71942;DHT22;59997;53.300;-6.260;2022-09-03T06:48:53;13.00;94.61
71942;DHT22;59997;53.300;-6.260;2022-09-03T06:51:21;13.08;94.27
71942;DHT22;59997;53.300;-6.260;2022-09-03T06:53:49;13.00;94.54
71942;DHT22;59997;53.300;-6.260;2022-09-03T06:56:18;12.98;94.97
71942;DHT22;59997;53.300;-6.260;2022-09-03T06:58:46;13.00;94.88
71942;DHT22;59997;53.300;-6.260;2022-09-03T07:01:18;12.99;94.73
71942;DHT22;59997;53.300;-6.260;2022-09-03T07:03:45;12.98;94.21
71942;DHT22;59997;53.300;-6.260;2022-09-03T07:06:13;12.95;94.30
71942;DHT22;59997;53.300;-6.260;2022-09-03T07:08:39;12.88;94.60
71942;DHT22;59997;53.300;-6.260;2022-09-03T07:11:09;12.81;95.12
71942;DHT22;59997;53.300;-6.260;2022-09-03T07:13:36;12.75;95.36
71942;DHT22;59997;53.300;-6.260;2022-09-03T07:16:09;12.77;95.54
71942;DHT22;59997;53.300;-6.260;2022-09-03T07:18:35;12.74;95.60
71942;DHT22;59997;53.300;-6.260;2022-09-03T07:21:03;12.74;95.90
71942;DHT22;59997;53.300;-6.260;2022-09-03T07:23:30;12.73;95.98
71942;DHT22;59997;53.300;-6.260;2022-09-03T07:25:58;12.74;96.12
71942;DHT22;59997;53.300;-6.260;2022-09-03T07:28:25;12.74;96.21
71942;DHT22;59997;53.300;-6.260;2022-09-03T07:30:52;12.82;96.30
71942;DHT22;59997;53.300;-6.260;2022-09-03T07:33:19;12.85;96.86
71942;DHT22;59997;53.300;-6.260;2022-09-03T07:35:45;12.85;96.94
71942;DHT22;59997;53.300;-6.260;2022-09-03T07:38:11;12.84;96.99
71942;DHT22;59997;53.300;-6.260;2022-09-03T07:40:38;12.82;97.05
71942;DHT22;59997;53.300;-6.260;2022-09-03T07:43:04;12.84;97.05
71942;DHT22;59997;53.300;-6.260;2022-09-03T07:45:30;12.81;97.19
71942;DHT22;59997;53.300;-6.260;2022-09-03T07:47:57;12.88;97.25
71942;DHT22;59997;53.300;-6.260;2022-09-03T07:50:22;12.87;97.25
71942;DHT22;59997;53.300;-6.260;2022-09-03T07:52:48;12.98;96.78
71942;DHT22;59997;53.300;-6.260;2022-09-03T07:55:14;12.95;96.84
71942;DHT22;59997;53.300;-6.260;2022-09-03T07:57:39;12.95;97.07
71942;DHT22;59997;53.300;-6.260;2022-09-03T08:00:06;12.99;96.94
71942;DHT22;59997;53.300;-6.260;2022-09-03T08:02:35;12.99;96.87
71942;DHT22;59997;53.300;-6.260;2022-09-03T08:05:00;13.02;96.80
71942;DHT22;59997;53.300;-6.260;2022-09-03T08:07:28;12.96;96.78
71942;DHT22;59997;53.300;-6.260;2022-09-03T08:09:54;12.99;96.90
71942;DHT22;59997;53.300;-6.260;2022-09-03T08:12:19;12.96;96.91
71942;DHT22;59997;53.300;-6.260;2022-09-03T08:14:45;12.95;96.87
71942;DHT22;59997;53.300;-6.260;2022-09-03T08:17:10;12.96;96.92
71942;DHT22;59997;53.300;-6.260;2022-09-03T08:19:37;12.98;96.82
71942;DHT22;59997;53.300;-6.260;2022-09-03T08:22:04;12.91;96.86
71942;DHT22;59997;53.300;-6.260;2022-09-03T08:24:30;12.91;96.82
71942;DHT22;59997;53.300;-6.260;2022-09-03T08:26:55;12.89;96.47
71942;DHT22;59997;53.300;-6.260;2022-09-03T08:29:21;12.88;96.06
71942;DHT22;59997;53.300;-6.260;2022-09-03T08:31:46;12.74;96.00
71942;DHT22;59997;53.300;-6.260;2022-09-03T08:34:12;12.71;95.78
71942;DHT22;59997;53.300;-6.260;2022-09-03T08:36:39;12.68;95.89
71942;DHT22;59997;53.300;-6.260;2022-09-03T08:39:07;12.63;96.22
71942;DHT22;59997;53.300;-6.260;2022-09-03T08:52:38;12.57;96.69
71942;DHT22;59997;53.300;-6.260;2022-09-03T08:57:46;12.56;96.62
71942;DHT22;59997;53.300;-6.260;2022-09-03T09:00:12;12.57;96.69
71942;DHT22;59997;53.300;-6.260;2022-09-03T09:02:56;12.61;96.77
71942;DHT22;59997;53.300;-6.260;2022-09-03T09:08:15;12.68;96.89
71942;DHT22;59997;53.300;-6.260;2022-09-03T09:11:18;12.74;96.27
71942;DHT22;59997;53.300;-6.260;2022-09-03T09:19:51;12.88;96.66
71942;DHT22;59997;53.300;-6.260;2022-09-03T09:22:40;13.00;96.78
71942;DHT22;59997;53.300;-6.260;2022-09-03T09:25:13;13.10;96.66
71942;DHT22;59997;53.300;-6.260;2022-09-03T09:27:51;13.16;96.39
71942;DHT22;59997;53.300;-6.260;2022-09-03T09:30:20;13.10;96.20
71942;DHT22;59997;53.300;-6.260;2022-09-03T09:32:45;13.13;95.76
71942;DHT22;59997;53.300;-6.260;2022-09-03T09:35:17;13.17;95.74
71942;DHT22;59997;53.300;-6.260;2022-09-03T09:38:01;13.17;95.34
71942;DHT22;59997;53.300;-6.260;2022-09-03T09:43:16;13.06;95.16
71942;DHT22;59997;53.300;-6.260;2022-09-03T09:45:48;13.10;95.26
71942;DHT22;59997;53.300;-6.260;2022-09-03T09:51:11;13.12;95.43
71942;DHT22;59997;53.300;-6.260;2022-09-03T09:53:39;13.15;95.24
71942;DHT22;59997;53.300;-6.260;2022-09-03T09:56:05;13.12;95.39
71942;DHT22;59997;53.300;-6.260;2022-09-03T09:58:32;13.12;95.32
71942;DHT22;59997;53.300;-6.260;2022-09-03T10:01:17;13.09;95.33
71942;DHT22;59997;53.300;-6.260;2022-09-03T10:03:53;13.13;95.50
71942;DHT22;59997;53.300;-6.260;2022-09-03T10:06:27;13.12;95.30
71942;DHT22;59997;53.300;-6.260;2022-09-03T10:09:19;13.24;95.26
71942;DHT22;59997;53.300;-6.260;2022-09-03T10:11:50;13.30;95.12
71942;DHT22;59997;53.300;-6.260;2022-09-03T10:14:25;13.39;95.32
71942;DHT22;59997;53.300;-6.260;2022-09-03T10:17:00;13.41;95.13
71942;DHT22;59997;53.300;-6.260;2022-09-03T10:19:39;13.40;95.13
71942;DHT22;59997;53.300;-6.260;2022-09-03T10:22:11;13.41;94.69
71942;DHT22;59997;53.300;-6.260;2022-09-03T10:27:19;13.41;94.26
71942;DHT22;59997;53.300;-6.260;2022-09-03T10:29:47;13.46;94.91
71942;DHT22;59997;53.300;-6.260;2022-09-03T10:35:25;13.44;94.48
71942;DHT22;59997;53.300;-6.260;2022-09-03T10:40:47;13.30;94.33
71942;DHT22;59997;53.300;-6.260;2022-09-03T10:45:58;13.17;94.48
71942;DHT22;59997;53.300;-6.260;2022-09-03T10:51:27;13.20;95.55
71942;DHT22;59997;53.300;-6.260;2022-09-03T10:57:28;13.26;94.61
71942;DHT22;59997;53.300;-6.260;2022-09-03T11:00:08;13.24;95.18
71942;DHT22;59997;53.300;-6.260;2022-09-03T11:05:59;13.19;95.58
71942;DHT22;59997;53.300;-6.260;2022-09-03T11:11:11;13.27;96.99
71942;DHT22;59997;53.300;-6.260;2022-09-03T11:13:49;13.40;97.33
71942;DHT22;59997;53.300;-6.260;2022-09-03T11:16:30;13.37;97.38
71942;DHT22;59997;53.300;-6.260;2022-09-03T11:19:08;13.32;97.57
71942;DHT22;59997;53.300;-6.260;2022-09-03T11:21:38;13.37;97.36
71942;DHT22;59997;53.300;-6.260;2022-09-03T11:24:19;13.39;96.60
71942;DHT22;59997;53.300;-6.260;2022-09-03T11:26:52;13.28;97.13
71942;DHT22;59997;53.300;-6.260;2022-09-03T11:29:49;13.28;97.09
71942;DHT22;59997;53.300;-6.260;2022-09-03T11:32:23;13.32;97.30
71942;DHT22;59997;53.300;-6.260;2022-09-03T11:34:52;13.33;97.36
71942;DHT22;59997;53.300;-6.260;2022-09-03T11:37:28;13.33;97.33
71942;DHT22;59997;53.300;-6.260;2022-09-03T11:45:33;13.36;96.76
71942;DHT22;59997;53.300;-6.260;2022-09-03T11:48:00;13.32;96.91
71942;DHT22;59997;53.300;-6.260;2022-09-03T11:50:28;13.33;97.09
71942;DHT22;59997;53.300;-6.260;2022-09-03T11:53:10;13.34;97.13
71942;DHT22;59997;53.300;-6.260;2022-09-03T11:55:55;13.33;96.91
71942;DHT22;59997;53.300;-6.260;2022-09-03T11:58:34;13.40;97.07
71942;DHT22;59997;53.300;-6.260;2022-09-03T12:01:03;13.41;96.79
71942;DHT22;59997;53.300;-6.260;2022-09-03T12:16:55;13.67;96.01
71942;DHT22;59997;53.300;-6.260;2022-09-03T12:19:51;13.72;96.15
71942;DHT22;59997;53.300;-6.260;2022-09-03T12:22:20;13.77;96.06
71942;DHT22;59997;53.300;-6.260;2022-09-03T12:24:46;13.81;96.65
71942;DHT22;59997;53.300;-6.260;2022-09-03T12:27:24;13.89;96.76
71942;DHT22;59997;53.300;-6.260;2022-09-03T12:30:01;13.86;96.00
71942;DHT22;59997;53.300;-6.260;2022-09-03T12:32:34;13.90;96.41
71942;DHT22;59997;53.300;-6.260;2022-09-03T12:35:17;13.90;96.79
71942;DHT22;59997;53.300;-6.260;2022-09-03T12:37:44;13.93;96.87
71942;DHT22;59997;53.300;-6.260;2022-09-03T12:40:19;13.95;96.97
71942;DHT22;59997;53.300;-6.260;2022-09-03T12:42:45;13.90;96.97
71942;DHT22;59997;53.300;-6.260;2022-09-03T12:45:12;13.93;97.00
71942;DHT22;59997;53.300;-6.260;2022-09-03T12:47:41;13.92;96.90
71942;DHT22;59997;53.300;-6.260;2022-09-03T12:50:19;13.92;97.09
71942;DHT22;59997;53.300;-6.260;2022-09-03T12:52:53;13.89;96.78
71942;DHT22;59997;53.300;-6.260;2022-09-03T12:55:42;13.92;96.74
71942;DHT22;59997;53.300;-6.260;2022-09-03T12:58:31;14.01;96.84
71942;DHT22;59997;53.300;-6.260;2022-09-03T13:01:13;14.10;96.80
71942;DHT22;59997;53.300;-6.260;2022-09-03T13:06:08;14.28;96.39
71942;DHT22;59997;53.300;-6.260;2022-09-03T13:08:44;14.33;96.09
71942;DHT22;59997;53.300;-6.260;2022-09-03T13:11:15;14.41;96.24
71942;DHT22;59997;53.300;-6.260;2022-09-03T13:13:52;14.42;95.99
71942;DHT22;59997;53.300;-6.260;2022-09-03T13:19:25;14.60;95.64
71942;DHT22;59997;53.300;-6.260;2022-09-03T13:27:43;14.67;95.48
71942;DHT22;59997;53.300;-6.260;2022-09-03T13:30:15;14.75;95.11
71942;DHT22;59997;53.300;-6.260;2022-09-03T13:33:08;14.78;95.26
71942;DHT22;59997;53.300;-6.260;2022-09-03T13:41:08;14.97;94.60
71942;DHT22;59997;53.300;-6.260;2022-09-03T13:49:40;14.97;95.37
71942;DHT22;59997;53.300;-6.260;2022-09-03T13:55:21;14.93;95.74
71942;DHT22;59997;53.300;-6.260;2022-09-03T13:58:05;14.93;96.02
71942;DHT22;59997;53.300;-6.260;2022-09-03T14:00:48;14.92;96.09
71942;DHT22;59997;53.300;-6.260;2022-09-03T14:06:06;14.85;95.47
71942;DHT22;59997;53.300;-6.260;2022-09-03T14:11:07;14.85;95.63
71942;DHT22;59997;53.300;-6.260;2022-09-03T14:14:05;14.86;95.52
71942;DHT22;59997;53.300;-6.260;2022-09-03T14:20:52;14.92;95.55
71942;DHT22;59997;53.300;-6.260;2022-09-03T14:22:49;15.02;95.88
71942;DHT22;59997;53.300;-6.260;2022-09-03T14:25:19;15.10;95.51
71942;DHT22;59997;53.300;-6.260;2022-09-03T14:27:45;15.07;95.59
71942;DHT22;59997;53.300;-6.260;2022-09-03T14:36:33;15.10;95.24
71942;DHT22;59997;53.300;-6.260;2022-09-03T14:47:49;15.03;95.22
71942;DHT22;59997;53.300;-6.260;2022-09-03T14:53:00;15.02;95.70
71942;DHT22;59997;53.300;-6.260;2022-09-03T14:55:57;15.00;95.94
71942;DHT22;59997;53.300;-6.260;2022-09-03T15:01:27;15.03;96.45
71942;DHT22;59997;53.300;-6.260;2022-09-03T15:04:29;15.03;96.67
71942;DHT22;59997;53.300;-6.260;2022-09-03T15:07:10;15.06;96.47
71942;DHT22;59997;53.300;-6.260;2022-09-03T15:09:44;15.03;96.46
71942;DHT22;59997;53.300;-6.260;2022-09-03T15:12:21;15.02;96.49
71942;DHT22;59997;53.300;-6.260;2022-09-03T15:14:53;14.99;96.46
71942;DHT22;59997;53.300;-6.260;2022-09-03T15:20:01;14.96;96.60
71942;DHT22;59997;53.300;-6.260;2022-09-03T15:23:01;14.90;96.39
71942;DHT22;59997;53.300;-6.260;2022-09-03T15:28:30;14.85;96.82
71942;DHT22;59997;53.300;-6.260;2022-09-03T15:33:53;14.72;96.75
71942;DHT22;59997;53.300;-6.260;2022-09-03T15:36:25;14.72;97.08
71942;DHT22;59997;53.300;-6.260;2022-09-03T15:38:56;14.73;97.03
71942;DHT22;59997;53.300;-6.260;2022-09-03T15:44:17;14.72;97.11
71942;DHT22;59997;53.300;-6.260;2022-09-03T15:46:46;14.65;97.09
71942;DHT22;59997;53.300;-6.260;2022-09-03T15:49:23;14.58;96.97
71942;DHT22;59997;53.300;-6.260;2022-09-03T15:54:47;14.44;97.22
71942;DHT22;59997;53.300;-6.260;2022-09-03T15:57:25;14.44;97.22
71942;DHT22;59997;53.300;-6.260;2022-09-03T16:00:00;14.37;97.25
71942;DHT22;59997;53.300;-6.260;2022-09-03T16:05:27;14.40;97.64
71942;DHT22;59997;53.300;-6.260;2022-09-03T16:08:12;14.47;97.84
71942;DHT22;59997;53.300;-6.260;2022-09-03T16:10:56;14.49;97.71
71942;DHT22;59997;53.300;-6.260;2022-09-03T16:13:42;14.57;97.85
71942;DHT22;59997;53.300;-6.260;2022-09-03T16:16:40;14.67;97.91
71942;DHT22;59997;53.300;-6.260;2022-09-03T16:19:20;14.71;97.80
71942;DHT22;59997;53.300;-6.260;2022-09-03T16:22:11;14.82;97.83
71942;DHT22;59997;53.300;-6.260;2022-09-03T16:27:43;15.00;97.85
71942;DHT22;59997;53.300;-6.260;2022-09-03T16:41:47;14.89;97.30
71942;DHT22;59997;53.300;-6.260;2022-09-03T16:44:30;14.85;97.43
71942;DHT22;59997;53.300;-6.260;2022-09-03T16:56:27;14.83;98.37
71942;DHT22;59997;53.300;-6.260;2022-09-03T16:59:01;14.83;98.50
71942;DHT22;59997;53.300;-6.260;2022-09-03T17:09:47;14.92;98.41
71942;DHT22;59997;53.300;-6.260;2022-09-03T17:12:19;14.89;98.54
71942;DHT22;59997;53.300;-6.260;2022-09-03T17:17:23;14.99;98.59
71942;DHT22;59997;53.300;-6.260;2022-09-03T17:25:47;15.13;98.02
71942;DHT22;59997;53.300;-6.260;2022-09-03T17:31:19;15.23;97.89
71942;DHT22;59997;53.300;-6.260;2022-09-03T17:41:48;15.21;97.05
71942;DHT22;59997;53.300;-6.260;2022-09-03T17:50:25;15.19;96.77
71942;DHT22;59997;53.300;-6.260;2022-09-03T17:53:18;15.10;96.85
71942;DHT22;59997;53.300;-6.260;2022-09-03T17:59:03;14.88;96.02
71942;DHT22;59997;53.300;-6.260;2022-09-03T18:01:33;14.79;95.22
71942;DHT22;59997;53.300;-6.260;2022-09-03T18:04:41;14.72;95.31
71942;DHT22;59997;53.300;-6.260;2022-09-03T18:07:28;14.62;95.38
71942;DHT22;59997;53.300;-6.260;2022-09-03T18:12:45;14.55;95.38
71942;DHT22;59997;53.300;-6.260;2022-09-03T18:17:57;14.54;95.60
71942;DHT22;59997;53.300;-6.260;2022-09-03T18:20:24;14.40;95.64
71942;DHT22;59997;53.300;-6.260;2022-09-03T18:23:17;14.34;95.68
71942;DHT22;59997;53.300;-6.260;2022-09-03T18:26:20;14.24;95.95
71942;DHT22;59997;53.300;-6.260;2022-09-03T18:29:11;14.19;96.01
71942;DHT22;59997;53.300;-6.260;2022-09-03T18:31:56;14.17;96.10
71942;DHT22;59997;53.300;-6.260;2022-09-03T18:34:40;14.12;96.33
71942;DHT22;59997;53.300;-6.260;2022-09-03T18:37:26;14.01;96.76
71942;DHT22;59997;53.300;-6.260;2022-09-03T18:40:16;14.01;96.58
71942;DHT22;59997;53.300;-6.260;2022-09-03T18:43:14;13.89;96.74
71942;DHT22;59997;53.300;-6.260;2022-09-03T18:46:26;13.89;96.47
71942;DHT22;59997;53.300;-6.260;2022-09-03T18:52:37;13.72;97.11
71942;DHT22;59997;53.300;-6.260;2022-09-03T18:55:53;13.68;97.38
71942;DHT22;59997;53.300;-6.260;2022-09-03T18:58:58;13.51;97.70
71942;DHT22;59997;53.300;-6.260;2022-09-03T19:01:46;13.40;98.06
71942;DHT22;59997;53.300;-6.260;2022-09-03T19:04:55;13.26;98.57
71942;DHT22;59997;53.300;-6.260;2022-09-03T19:11:04;13.22;98.31
71942;DHT22;59997;53.300;-6.260;2022-09-03T19:13:51;13.24;98.10
71942;DHT22;59997;53.300;-6.260;2022-09-03T19:16:56;13.23;97.91
71942;DHT22;59997;53.300;-6.260;2022-09-03T19:22:46;13.06;97.74
71942;DHT22;59997;53.300;-6.260;2022-09-03T19:25:31;13.00;97.73
71942;DHT22;59997;53.300;-6.260;2022-09-03T19:28:33;12.96;97.59
71942;DHT22;59997;53.300;-6.260;2022-09-03T19:37:25;12.82;97.25
71942;DHT22;59997;53.300;-6.260;2022-09-03T19:49:45;12.71;97.09
71942;DHT22;59997;53.300;-6.260;2022-09-03T19:52:59;12.64;97.39
71942;DHT22;59997;53.300;-6.260;2022-09-03T19:55:52;12.47;97.62
71942;DHT22;59997;53.300;-6.260;2022-09-03T19:58:40;12.40;97.80
71942;DHT22;59997;53.300;-6.260;2022-09-03T20:01:32;12.29;97.90
71942;DHT22;59997;53.300;-6.260;2022-09-03T20:04:17;12.21;98.08
71942;DHT22;59997;53.300;-6.260;2022-09-03T20:07:07;12.15;98.08
71942;DHT22;59997;53.300;-6.260;2022-09-03T20:09:54;12.16;97.88
71942;DHT22;59997;53.300;-6.260;2022-09-03T20:12:44;12.05;97.90
71942;DHT22;59997;53.300;-6.260;2022-09-03T20:15:12;11.92;98.10
71942;DHT22;59997;53.300;-6.260;2022-09-03T20:20:54;11.92;98.49
71942;DHT22;59997;53.300;-6.260;2022-09-03T20:23:35;11.80;98.34
71942;DHT22;59997;53.300;-6.260;2022-09-03T20:26:18;11.75;98.37
71942;DHT22;59997;53.300;-6.260;2022-09-03T20:32:01;11.54;98.56
71942;DHT22;59997;53.300;-6.260;2022-09-03T20:34:44;11.52;98.83
71942;DHT22;59997;53.300;-6.260;2022-09-03T20:37:59;11.53;98.81
71942;DHT22;59997;53.300;-6.260;2022-09-03T20:41:37;11.39;99.13
71942;DHT22;59997;53.300;-6.260;2022-09-03T20:44:02;11.43;99.41